createdAt,value
2018-12-08T00:00:00.104Z,94.32
2018-12-08T00:03:03.865Z,91.77
2018-12-08T00:06:07.234Z,91.51
2018-12-08T00:09:10.532Z,92.02
2018-12-08T00:12:13.865Z,90.22
2018-12-08T00:15:17.233Z,91.82
2018-12-08T00:18:20.626Z,90.63
2018-12-08T00:21:24.034Z,90.66
2018-12-08T00:24:27.331Z,89.12
2018-12-08T00:27:30.634Z,91.43
2018-12-08T00:30:51.458Z,93.89
2018-12-08T00:33:54.746Z,96.40
2018-12-08T00:36:58.069Z,99.06
2018-12-08T00:40:01.436Z,100.00
2018-12-08T00:43:04.773Z,100.00
2018-12-08T00:46:08.063Z,100.00
2018-12-08T00:49:11.619Z,100.00
2018-12-08T00:52:15.039Z,100.00
2018-12-08T00:55:18.440Z,100.00
2018-12-08T00:58:21.734Z,100.00
2018-12-08T01:01:25.103Z,99.31
2018-12-08T01:04:28.436Z,99.62
2018-12-08T01:07:31.766Z,99.21
2018-12-08T01:10:35.073Z,99.13
2018-12-08T01:13:38.373Z,100.00
2018-12-08T01:16:41.933Z,100.00
2018-12-08T01:19:45.299Z,100.00
2018-12-08T01:22:48.701Z,100.00
2018-12-08T01:25:52.002Z,98.93
2018-12-08T01:28:55.395Z,98.27
2018-12-08T01:31:58.755Z,99.26
2018-12-08T01:35:02.048Z,98.96
2018-12-08T01:38:05.494Z,99.42
2018-12-08T01:41:08.842Z,97.77
2018-12-08T01:44:12.220Z,95.32
2018-12-08T01:47:15.572Z,94.52
2018-12-08T01:50:18.953Z,94.79
2018-12-08T01:53:22.364Z,94.71
2018-12-08T01:56:25.770Z,94.50
2018-12-08T01:59:29.094Z,95.08
2018-12-08T02:02:32.390Z,95.06
2018-12-08T02:05:35.694Z,94.83
2018-12-08T02:08:39.089Z,96.33
2018-12-08T02:11:42.494Z,96.67
2018-12-08T02:14:45.785Z,96.96
2018-12-08T02:17:49.109Z,97.32
2018-12-08T02:20:52.481Z,97.06
2018-12-08T02:23:55.813Z,97.03
2018-12-08T02:26:59.150Z,97.81
2018-12-08T02:30:02.681Z,98.07
2018-12-08T02:33:06.173Z,98.59
2018-12-08T02:36:09.572Z,97.29
2018-12-08T02:39:12.974Z,97.29
2018-12-08T02:42:16.486Z,96.91
2018-12-08T02:45:19.807Z,95.41
2018-12-08T02:48:23.287Z,93.66
2018-12-08T02:51:26.692Z,92.77
2018-12-08T02:54:29.987Z,92.80
2018-12-08T02:57:33.358Z,92.79
2018-12-08T03:00:36.793Z,91.01
2018-12-08T03:03:40.086Z,88.21
2018-12-08T03:06:43.391Z,88.67
2018-12-08T03:09:46.781Z,86.98
2018-12-08T03:12:50.183Z,87.77
2018-12-08T03:15:53.486Z,87.35
2018-12-08T03:18:56.782Z,87.46
2018-12-08T03:22:00.182Z,88.32
2018-12-08T03:25:03.680Z,87.61
2018-12-08T03:28:07.073Z,88.95
2018-12-08T03:31:10.427Z,89.90
2018-12-08T03:34:13.874Z,92.30
2018-12-08T03:37:17.186Z,93.30
2018-12-08T03:40:20.570Z,92.13
2018-12-08T03:43:23.974Z,91.26
2018-12-08T03:46:27.440Z,90.83
2018-12-08T03:49:31.818Z,91.63
2018-12-08T03:52:35.204Z,92.57
2018-12-08T03:55:38.543Z,91.87
2018-12-08T03:58:41.893Z,92.46
2018-12-08T04:01:45.293Z,90.64
2018-12-08T04:04:48.626Z,90.41
2018-12-08T04:07:51.985Z,89.54
2018-12-08T04:10:55.401Z,89.42
2018-12-08T04:13:58.799Z,88.43
2018-12-08T04:17:02.200Z,87.38
2018-12-08T04:20:05.705Z,86.95
2018-12-08T04:23:09.152Z,87.31
2018-12-08T04:26:12.447Z,86.16
2018-12-08T04:29:15.782Z,85.89
2018-12-08T04:32:19.200Z,85.57
2018-12-08T04:35:22.585Z,84.91
2018-12-08T04:38:26.315Z,84.80
2018-12-08T04:41:29.610Z,85.70
2018-12-08T04:44:33.731Z,85.37
2018-12-08T04:47:37.113Z,84.12
2018-12-08T04:50:40.426Z,84.78
2018-12-08T04:53:43.723Z,85.54
2018-12-08T04:56:47.051Z,85.88
2018-12-08T04:59:50.406Z,85.24
2018-12-08T05:02:53.706Z,86.01
2018-12-08T05:05:57.008Z,87.42
2018-12-08T05:09:00.398Z,86.37
2018-12-08T05:12:03.906Z,84.46
2018-12-08T05:15:07.302Z,84.76
2018-12-08T05:18:10.608Z,84.74
2018-12-08T05:21:13.938Z,83.48
2018-12-08T05:24:18.165Z,83.24
2018-12-08T05:27:22.116Z,82.41
2018-12-08T05:30:25.554Z,82.82
2018-12-08T05:33:28.945Z,82.37
2018-12-08T05:36:32.335Z,82.44
2018-12-08T05:39:35.738Z,82.38
2018-12-08T05:42:39.144Z,83.74
2018-12-08T05:45:42.482Z,83.37
2018-12-08T05:48:45.814Z,83.13
2018-12-08T05:51:49.119Z,82.86
2018-12-08T05:54:52.438Z,82.39
2018-12-08T05:57:55.826Z,83.36
2018-12-08T06:00:59.154Z,83.39
2018-12-08T06:04:02.485Z,83.67
2018-12-08T06:07:05.851Z,83.57
2018-12-08T06:10:10.186Z,83.68
2018-12-08T06:13:13.499Z,83.60
2018-12-08T06:16:16.793Z,83.22
2018-12-08T06:19:20.290Z,84.10
2018-12-08T06:22:23.637Z,84.33
2018-12-08T06:25:28.006Z,83.91
2018-12-08T06:28:31.338Z,85.39
2018-12-08T06:31:34.635Z,84.21
2018-12-08T06:34:37.941Z,84.19
2018-12-08T06:37:41.246Z,84.25
2018-12-08T06:40:44.537Z,85.00
2018-12-08T06:43:47.839Z,85.04
2018-12-08T06:46:51.177Z,84.71
2018-12-08T06:49:54.475Z,84.97
2018-12-08T06:52:57.813Z,86.15
2018-12-08T06:56:01.182Z,86.09
2018-12-08T06:59:04.516Z,86.27
2018-12-08T07:02:07.822Z,85.72
2018-12-08T07:05:11.134Z,85.76
2018-12-08T07:08:14.530Z,85.49
2018-12-08T07:11:17.835Z,86.19
2018-12-08T07:14:21.139Z,85.70
2018-12-08T07:17:24.514Z,85.18
2018-12-08T07:20:27.814Z,84.64
2018-12-08T07:23:31.122Z,83.52
2018-12-08T07:26:34.449Z,83.26
2018-12-08T07:29:37.783Z,82.26
2018-12-08T07:32:41.106Z,82.08
2018-12-08T07:35:44.542Z,80.68
2018-12-08T07:38:47.967Z,79.77
2018-12-08T07:41:51.330Z,79.30
2018-12-08T07:44:54.630Z,80.42
2018-12-08T07:47:57.926Z,78.49
2018-12-08T07:51:01.263Z,77.11
2018-12-08T07:54:04.666Z,76.75
2018-12-08T07:57:07.999Z,77.04
2018-12-08T08:00:11.411Z,76.12
2018-12-08T08:03:14.706Z,76.55
2018-12-08T08:06:18.009Z,76.50
2018-12-08T08:09:21.307Z,76.50
2018-12-08T08:12:24.601Z,75.83
2018-12-08T08:15:27.982Z,76.13
2018-12-08T08:18:31.300Z,75.10
2018-12-08T08:21:34.705Z,75.24
2018-12-08T08:24:37.991Z,74.14
2018-12-08T08:27:41.322Z,74.94
2018-12-08T08:30:44.665Z,74.27
2018-12-08T08:33:47.957Z,73.93
2018-12-08T08:36:51.332Z,73.15
2018-12-08T08:39:54.645Z,74.02
2018-12-08T08:42:57.938Z,73.31
2018-12-08T08:46:01.349Z,74.05
2018-12-08T08:49:04.729Z,73.94
2018-12-08T08:52:08.035Z,72.36
2018-12-08T08:55:11.379Z,73.24
2018-12-08T08:58:14.731Z,72.68
2018-12-08T09:01:18.070Z,71.92
2018-12-08T09:04:21.426Z,72.83
2018-12-08T09:07:24.725Z,72.29
2018-12-08T09:10:28.073Z,72.36
2018-12-08T09:13:31.405Z,72.05
2018-12-08T09:16:34.715Z,71.97
2018-12-08T09:19:38.053Z,71.25
2018-12-08T09:22:41.421Z,70.82
2018-12-08T09:25:44.773Z,70.63
2018-12-08T09:28:48.084Z,71.78
2018-12-08T09:31:51.530Z,70.35
2018-12-08T09:34:54.829Z,69.95
2018-12-08T09:37:58.134Z,69.48
2018-12-08T09:41:01.446Z,68.74
2018-12-08T09:44:04.856Z,69.11
2018-12-08T09:47:08.193Z,66.90
2018-12-08T09:50:11.532Z,67.00
2018-12-08T09:53:16.990Z,67.42
2018-12-08T09:56:20.322Z,66.89
2018-12-08T09:59:23.617Z,64.95
2018-12-08T10:02:27.001Z,64.91
2018-12-08T10:05:30.336Z,63.08
2018-12-08T10:08:33.782Z,63.87
2018-12-08T10:11:37.093Z,63.16
2018-12-08T10:14:40.397Z,63.22
2018-12-08T10:17:43.697Z,64.12
2018-12-08T10:20:47.038Z,62.68
2018-12-08T10:23:50.398Z,63.88
2018-12-08T10:26:53.847Z,61.64
2018-12-08T10:29:57.177Z,62.58
2018-12-08T10:33:00.510Z,62.87
2018-12-08T10:36:03.878Z,62.54
2018-12-08T10:39:08.016Z,62.73
2018-12-08T10:42:13.747Z,61.99
2018-12-08T10:45:17.107Z,61.70
2018-12-08T10:48:20.501Z,61.41
2018-12-08T10:51:23.816Z,61.16
2018-12-08T10:54:27.151Z,61.49
2018-12-08T10:57:30.489Z,62.28
2018-12-08T11:00:39.358Z,63.14
2018-12-08T11:03:47.569Z,62.98
2018-12-08T11:06:50.866Z,63.25
2018-12-08T11:09:54.350Z,64.75
2018-12-08T11:12:57.694Z,64.06
2018-12-08T11:16:00.994Z,63.68
2018-12-08T11:19:04.410Z,63.79
2018-12-08T11:22:07.748Z,63.12
2018-12-08T11:25:11.103Z,63.71
2018-12-08T11:28:14.518Z,63.31
2018-12-08T11:31:17.858Z,62.83
2018-12-08T11:34:21.186Z,61.98
2018-12-08T11:37:24.586Z,62.34
2018-12-08T11:40:27.883Z,61.26
2018-12-08T11:43:31.183Z,61.63
2018-12-08T11:46:34.518Z,60.92
2018-12-08T11:49:37.970Z,61.66
2018-12-08T11:52:41.318Z,61.98
2018-12-08T11:55:44.626Z,61.86
2018-12-08T11:58:47.939Z,60.81
2018-12-08T12:01:51.376Z,59.75
2018-12-08T12:04:54.678Z,59.89
2018-12-08T12:07:58.041Z,60.04
2018-12-08T12:11:01.363Z,59.45
2018-12-08T12:14:07.013Z,58.42
2018-12-08T12:20:18.980Z,60.16
2018-12-08T12:23:22.345Z,59.17
2018-12-08T12:26:26.602Z,58.97
2018-12-08T12:29:30.031Z,59.82
2018-12-08T12:32:33.409Z,58.55
2018-12-08T12:35:36.810Z,58.73
2018-12-08T12:38:40.126Z,57.97
2018-12-08T12:41:43.443Z,58.22
2018-12-08T12:44:46.846Z,57.80
2018-12-08T12:47:50.160Z,58.22
2018-12-08T12:50:53.571Z,58.74
2018-12-08T12:53:57.235Z,59.57
2018-12-08T12:57:00.629Z,59.42
2018-12-08T13:00:07.310Z,59.23
2018-12-08T13:03:10.637Z,59.59
2018-12-08T13:06:14.087Z,59.50
2018-12-08T13:09:17.404Z,60.54
2018-12-08T13:12:20.818Z,59.91
2018-12-08T13:15:24.129Z,60.42
2018-12-08T13:18:27.542Z,59.77
2018-12-08T13:21:30.950Z,60.21
2018-12-08T13:24:34.298Z,60.55
2018-12-08T13:27:37.593Z,59.82
2018-12-08T13:30:40.930Z,60.72
2018-12-08T13:33:44.266Z,60.85
2018-12-08T13:36:47.629Z,61.07
2018-12-08T13:39:50.927Z,61.82
2018-12-08T13:42:54.343Z,62.14
2018-12-08T13:45:57.713Z,61.46
2018-12-08T13:49:01.033Z,62.12
2018-12-08T13:52:04.522Z,63.01
2018-12-08T13:55:08.235Z,63.18
2018-12-08T13:58:11.529Z,63.85
2018-12-08T14:01:15.351Z,63.38
2018-12-08T14:04:19.963Z,63.51
2018-12-08T14:07:23.439Z,62.50
2018-12-08T14:10:26.949Z,62.54
2018-12-08T14:13:30.325Z,62.76
2018-12-08T14:16:34.062Z,63.05
2018-12-08T14:19:37.377Z,62.13
2018-12-08T14:22:40.683Z,63.06
2018-12-08T14:25:45.254Z,62.69
2018-12-08T14:28:48.798Z,63.46
2018-12-08T14:31:52.434Z,63.68
2018-12-08T14:34:55.730Z,64.13
2018-12-08T14:37:59.070Z,63.87
2018-12-08T14:41:02.421Z,63.85
2018-12-08T14:44:05.761Z,65.35
2018-12-08T14:47:09.778Z,64.45
2018-12-08T14:50:13.414Z,65.79
2018-12-08T14:53:16.758Z,66.22
2018-12-08T14:56:20.073Z,66.08
2018-12-08T14:59:23.506Z,66.74
2018-12-08T15:02:52.268Z,66.98
2018-12-08T15:05:57.270Z,67.58
2018-12-08T15:09:00.677Z,68.16
2018-12-08T15:12:04.052Z,67.93
2018-12-08T15:15:07.821Z,68.50
2018-12-08T15:18:11.177Z,68.71
2018-12-08T15:21:14.538Z,70.51
2018-12-08T15:24:18.630Z,71.42
2018-12-08T15:27:21.973Z,71.13
2018-12-08T15:30:25.299Z,71.31
2018-12-08T15:33:28.789Z,71.02
2018-12-08T15:36:32.180Z,70.93
2018-12-08T15:39:36.013Z,70.43
2018-12-08T15:42:39.600Z,71.30
2018-12-08T15:45:42.958Z,70.94
2018-12-08T15:48:46.816Z,70.46
2018-12-08T15:51:54.105Z,71.09
2018-12-08T15:54:57.401Z,71.13
2018-12-08T15:58:00.762Z,71.68
2018-12-08T16:01:04.292Z,71.52
2018-12-08T16:04:07.614Z,72.08
2018-12-08T16:07:10.983Z,72.66
2018-12-08T16:10:14.393Z,73.46
2018-12-08T16:13:17.766Z,73.71
2018-12-08T16:16:21.093Z,73.69
2018-12-08T16:19:24.427Z,73.87
2018-12-08T16:22:28.369Z,73.89
2018-12-08T16:25:31.690Z,73.78
2018-12-08T16:28:35.068Z,73.85
2018-12-08T16:31:38.422Z,73.68
2018-12-08T16:34:41.725Z,73.25
2018-12-08T16:37:45.501Z,72.87
2018-12-08T16:40:48.868Z,72.67
2018-12-08T16:43:52.395Z,72.37
2018-12-08T16:46:55.724Z,72.65
2018-12-08T16:49:59.058Z,72.33
2018-12-08T16:53:02.392Z,72.13
2018-12-08T16:56:05.738Z,71.68
2018-12-08T16:59:09.137Z,72.43
2018-12-08T17:02:12.695Z,72.93
2018-12-08T17:05:16.134Z,72.35
2018-12-08T17:08:19.504Z,72.44
2018-12-08T17:11:23.982Z,72.66
2018-12-08T17:14:27.417Z,73.44
2018-12-08T17:17:31.985Z,73.37
2018-12-08T17:20:35.381Z,73.65
2018-12-08T17:23:38.790Z,74.39
2018-12-08T17:26:42.161Z,74.61
2018-12-08T17:29:45.494Z,75.02
2018-12-08T17:32:48.842Z,74.86
2018-12-08T17:35:52.143Z,75.05
2018-12-08T17:38:55.485Z,75.49
2018-12-08T17:41:58.841Z,75.92
2018-12-08T17:45:02.480Z,75.84
2018-12-08T17:48:05.765Z,74.67
2018-12-08T17:51:09.462Z,75.29
2018-12-08T17:54:13.049Z,74.60
2018-12-08T17:57:16.375Z,74.37
2018-12-08T18:00:19.803Z,74.02
2018-12-08T18:03:23.169Z,73.94
2018-12-08T18:06:26.632Z,74.03
2018-12-08T18:09:30.413Z,73.90
2018-12-08T18:12:33.799Z,74.31
2018-12-08T18:15:37.289Z,73.74
2018-12-08T18:18:40.802Z,73.50
2018-12-08T18:21:44.457Z,73.30
2018-12-08T18:24:47.827Z,72.64
2018-12-08T18:27:51.138Z,72.79
2018-12-08T18:30:54.610Z,71.62
2018-12-08T18:33:58.038Z,71.09
2018-12-08T18:37:01.421Z,70.64
2018-12-08T18:40:05.420Z,71.59
2018-12-08T18:43:08.838Z,70.19
2018-12-08T18:46:12.242Z,69.39
2018-12-08T18:49:15.546Z,70.27
2018-12-08T18:52:18.875Z,69.19
2018-12-08T18:55:22.213Z,69.21
2018-12-08T18:58:25.605Z,69.36
2018-12-08T19:01:28.950Z,68.94
2018-12-08T19:04:32.243Z,69.25
2018-12-08T19:07:35.673Z,68.94
2018-12-08T19:10:39.009Z,69.03
2018-12-08T19:13:42.302Z,68.04
2018-12-08T19:16:45.646Z,67.96
2018-12-08T19:19:48.938Z,68.42
2018-12-08T19:22:52.233Z,68.12
2018-12-08T19:25:55.587Z,67.97
2018-12-08T19:28:58.967Z,68.14
2018-12-08T19:32:02.318Z,67.27
2018-12-08T19:35:05.967Z,67.21
2018-12-08T19:38:09.422Z,67.20
2018-12-08T19:41:12.836Z,67.01
2018-12-08T19:44:16.150Z,67.09
2018-12-08T19:47:19.792Z,66.64
2018-12-08T19:50:23.127Z,66.91
2018-12-08T19:53:26.442Z,66.89
2018-12-08T19:56:29.825Z,67.33
2018-12-08T19:59:34.129Z,66.85
2018-12-08T20:02:37.681Z,66.32
2018-12-08T20:05:41.401Z,66.44
2018-12-08T20:08:44.794Z,65.96
2018-12-08T20:11:48.075Z,65.97
2018-12-08T20:14:51.398Z,66.09
2018-12-08T20:17:54.754Z,65.85
2018-12-08T20:20:58.051Z,65.40
2018-12-08T20:24:01.473Z,65.22
2018-12-08T20:27:04.872Z,66.30
2018-12-08T20:30:08.493Z,66.38
2018-12-08T20:33:11.849Z,66.80
2018-12-08T20:36:15.165Z,66.65
2018-12-08T20:39:18.463Z,66.97
2018-12-08T20:42:21.838Z,66.60
2018-12-08T20:45:25.155Z,66.78
2018-12-08T20:48:28.524Z,66.87
2018-12-08T20:51:31.848Z,67.10
2018-12-08T20:54:35.175Z,67.03
2018-12-08T20:57:39.221Z,66.76
2018-12-08T21:00:52.247Z,65.89
2018-12-08T21:03:57.767Z,67.10
2018-12-08T21:07:01.722Z,66.29
2018-12-08T21:10:06.521Z,65.87
2018-12-08T21:13:09.970Z,65.77
2018-12-08T21:16:13.321Z,65.78
2018-12-08T21:19:16.650Z,65.92
2018-12-08T21:22:20.005Z,65.79
2018-12-08T21:25:23.621Z,65.71
2018-12-08T21:28:26.981Z,65.94
2018-12-08T21:31:30.333Z,66.83
2018-12-08T21:34:33.633Z,66.76
2018-12-08T21:37:36.969Z,67.38
2018-12-08T21:40:40.524Z,67.84
2018-12-08T21:43:43.869Z,68.07
2018-12-08T21:46:47.181Z,67.24
2018-12-08T21:49:50.725Z,67.59
2018-12-08T21:52:54.033Z,67.88
2018-12-08T21:55:57.377Z,66.92
2018-12-08T21:59:00.781Z,66.55
2018-12-08T22:02:04.478Z,67.40
2018-12-08T22:05:07.893Z,67.60
2018-12-08T22:08:11.301Z,67.13
2018-12-08T22:11:14.630Z,67.07
2018-12-08T22:14:17.916Z,67.43
2018-12-08T22:17:21.219Z,67.85
2018-12-08T22:20:24.518Z,68.23
2018-12-08T22:23:27.814Z,68.00
2018-12-08T22:26:31.156Z,67.96
2018-12-08T22:29:34.446Z,68.46
2018-12-08T22:32:37.822Z,68.41
2018-12-08T22:35:41.242Z,68.93
2018-12-08T22:38:44.544Z,70.88
2018-12-08T22:41:47.869Z,72.78
2018-12-08T22:44:51.244Z,77.26
2018-12-08T22:47:54.602Z,81.03
2018-12-08T22:50:57.910Z,79.83
2018-12-08T22:54:01.202Z,79.89
2018-12-08T22:57:04.687Z,78.04
2018-12-08T23:03:54.139Z,76.49
2018-12-08T23:07:01.806Z,76.36
2018-12-08T23:10:07.734Z,76.42
2018-12-08T23:13:11.069Z,76.37
2018-12-08T23:16:14.492Z,75.89
2018-12-08T23:19:17.909Z,76.50
2018-12-08T23:22:21.239Z,76.42
2018-12-08T23:25:24.636Z,76.39
2018-12-08T23:28:27.988Z,76.11
2018-12-08T23:31:31.324Z,75.60
2018-12-08T23:34:34.665Z,75.01
2018-12-08T23:37:37.989Z,74.66
2018-12-08T23:40:41.338Z,74.87
2018-12-08T23:43:44.889Z,74.58
2018-12-08T23:46:48.211Z,74.06
2018-12-08T23:49:51.775Z,74.46
2018-12-08T23:52:55.205Z,74.67
2018-12-08T23:55:58.705Z,77.01
2018-12-08T23:59:02.401Z,80.41
